Time;durP1;ratioP1;P1;durP2;ratioP2;P2;SDS_P1;SDS_P2;PMS_P1;PMS_P2;Temp;Humidity;BMP_temperature;BMP_pressure;BME280_temperature;BME280_humidity;BME280_pressure;Samples;Min_cycle;Max_cycle;Signal;HPM_P1;HPM_P2
2022/11/24 00:02:23;;;;;;;7.53;3.17;;;5.10;99.90;;;;;;5025571;28;20493;-60
2022/11/24 00:04:49;;;;;;;5.63;3.40;;;5.10;99.90;;;;;;5027297;28;20179;-59
2022/11/24 00:07:14;;;;;;;5.57;3.03;;;5.20;99.90;;;;;;5031971;28;20191;-60
2022/11/24 00:09:42;;;;;;;9.80;3.23;;;5.20;99.90;;;;;;5016616;28;20183;-59
2022/11/24 00:12:08;;;;;;;5.50;4.17;;;5.20;99.90;;;;;;5029331;28;20180;-59
2022/11/24 00:14:33;;;;;;;8.60;4.00;;;5.20;99.90;;;;;;5028660;28;20448;-59
2022/11/24 00:16:59;;;;;;;6.40;3.70;;;5.20;99.90;;;;;;5029712;28;20203;-59
2022/11/24 00:19:25;;;;;;;5.77;3.57;;;5.30;99.90;;;;;;5029026;28;20178;-60
2022/11/24 00:21:50;;;;;;;9.10;3.37;;;5.20;99.90;;;;;;5028413;28;20615;-59
2022/11/24 00:24:16;;;;;;;3.20;2.60;;;5.20;99.90;;;;;;5028722;28;20172;-60
2022/11/24 00:26:42;;;;;;;5.60;3.03;;;5.30;99.90;;;;;;5029492;28;20192;-60
2022/11/24 00:29:09;;;;;;;5.40;3.00;;;5.30;99.90;;;;;;5026446;28;20180;-59
2022/11/24 00:31:38;;;;;;;11.07;2.80;;;5.30;99.90;;;;;;5029665;28;20172;-59
2022/11/24 00:34:06;;;;;;;3.97;2.43;;;5.30;99.90;;;;;;5025681;28;20517;-60
2022/11/24 00:36:34;;;;;;;6.63;2.67;;;5.30;99.90;;;;;;5028678;28;20449;-60
2022/11/24 00:39:05;;;;;;;7.47;2.47;;;5.30;99.90;;;;;;5025712;28;21155;-59
2022/11/24 00:41:31;;;;;;;4.70;2.70;;;5.30;99.90;;;;;;5027343;28;20486;-60
2022/11/24 00:43:57;;;;;;;3.57;2.90;;;5.30;99.90;;;;;;5031005;28;20415;-60
2022/11/24 00:46:24;;;;;;;5.20;2.47;;;5.30;99.90;;;;;;5028414;28;20468;-61
2022/11/24 00:48:50;;;;;;;3.60;2.53;;;5.30;99.90;;;;;;5030208;28;20521;-60
2022/11/24 00:51:17;;;;;;;3.40;2.43;;;5.30;99.90;;;;;;5027593;28;21064;-59
2022/11/24 00:53:43;;;;;;;3.93;2.67;;;5.30;99.90;;;;;;5014606;28;20438;-60
2022/11/24 00:56:10;;;;;;;2.73;2.50;;;5.30;99.90;;;;;;5028034;28;20466;-60
2022/11/24 00:58:36;;;;;;;7.20;2.30;;;5.20;99.90;;;;;;5026763;28;20969;-60
2022/11/24 01:01:13;;;;;;;3.60;2.63;;;5.20;99.90;;;;;;5028573;28;20480;-60
2022/11/24 01:03:39;;;;;;;2.20;2.00;;;5.20;99.90;;;;;;5029485;28;20636;-60
2022/11/24 01:06:07;;;;;;;1.83;1.70;;;5.20;99.90;;;;;;5013081;28;20484;-60
2022/11/24 01:08:33;;;;;;;3.77;1.73;;;5.10;99.90;;;;;;5029407;28;20415;-60
2022/11/24 01:11:06;;;;;;;7.30;1.63;;;5.10;99.90;;;;;;5025401;28;20935;-60
2022/11/24 01:13:32;;;;;;;3.60;1.90;;;5.10;99.90;;;;;;5027312;28;20430;-61
2022/11/24 01:15:58;;;;;;;2.90;2.00;;;5.10;99.90;;;;;;5027567;28;20557;-61
2022/11/24 01:18:23;;;;;;;1.97;1.60;;;5.00;99.90;;;;;;5026586;28;20270;-61
2022/11/24 01:20:51;;;;;;;3.50;2.20;;;5.10;99.90;;;;;;5023290;28;20183;-61
2022/11/24 01:23:16;;;;;;;4.43;1.70;;;5.10;99.90;;;;;;5016728;28;20253;-61
2022/11/24 01:25:45;;;;;;;2.23;1.87;;;5.10;99.90;;;;;;5021808;28;20443;-60
2022/11/24 01:28:11;;;;;;;3.23;2.10;;;5.10;99.90;;;;;;5029002;28;20779;-60
2022/11/24 01:30:36;;;;;;;2.47;1.80;;;5.10;99.90;;;;;;5028296;28;20427;-60
2022/11/24 01:33:02;;;;;;;4.73;2.17;;;5.00;99.90;;;;;;5022285;28;20180;-60
2022/11/24 01:35:27;;;;;;;2.43;1.73;;;5.00;99.90;;;;;;5028023;28;20203;-60
2022/11/24 01:37:53;;;;;;;1.90;1.80;;;5.00;99.90;;;;;;5027379;28;20282;-61
2022/11/24 01:40:19;;;;;;;3.57;2.37;;;5.00;99.90;;;;;;5025574;28;20187;-61
2022/11/24 01:42:49;;;;;;;8.17;2.67;;;5.00;99.90;;;;;;5029104;28;20840;-61
2022/11/24 01:45:39;;;;;;;3.70;2.13;;;4.90;99.90;;;;;;5026327;28;20210;-61
2022/11/24 01:48:12;;;;;;;6.80;2.77;;;4.90;99.90;;;;;;5027422;28;20488;-61
2022/11/24 01:50:40;;;;;;;10.67;2.83;;;4.90;99.90;;;;;;5027736;28;21024;-61
2022/11/24 01:53:06;;;;;;;6.17;2.90;;;4.80;99.90;;;;;;5026901;28;20438;-61
2022/11/24 01:55:36;;;;;;;5.73;3.03;;;4.80;99.90;;;;;;5024327;28;20458;-61
2022/11/24 01:58:11;;;;;;;2.57;1.90;;;4.70;99.90;;;;;;5011180;28;20435;-61
2022/11/24 02:00:38;;;;;;;2.40;1.60;;;4.70;99.90;;;;;;5024442;28;20449;-61
2022/11/24 02:03:04;;;;;;;4.03;1.93;;;4.70;99.90;;;;;;5021822;28;20498;-59
2022/11/24 02:05:37;;;;;;;2.20;1.70;;;4.60;99.90;;;;;;5026298;28;20541;-61
2022/11/24 02:08:05;;;;;;;5.47;2.27;;;4.60;99.90;;;;;;5014388;28;20726;-61
2022/11/24 02:10:30;;;;;;;4.13;2.13;;;4.60;99.90;;;;;;5026706;28;20886;-61
2022/11/24 02:12:58;;;;;;;6.27;2.90;;;4.60;99.90;;;;;;5025069;28;20445;-60
2022/11/24 02:15:24;;;;;;;4.77;2.03;;;4.60;99.90;;;;;;5028595;28;20225;-60
2022/11/24 02:17:50;;;;;;;4.10;2.00;;;4.60;99.90;;;;;;5027481;28;20477;-61
2022/11/24 02:20:16;;;;;;;7.30;1.87;;;4.60;99.90;;;;;;5009934;28;20981;-61
2022/11/24 02:23:10;;;;;;;4.13;2.40;;;4.70;99.90;;;;;;5026129;28;20196;-60
2022/11/24 02:25:35;;;;;;;2.53;2.13;;;4.70;99.90;;;;;;5027985;28;20478;-60
2022/11/24 02:28:05;;;;;;;4.90;2.20;;;4.60;99.90;;;;;;5026504;28;20427;-59
2022/11/24 02:30:31;;;;;;;3.30;2.27;;;4.60;99.90;;;;;;5025497;28;20188;-60
2022/11/24 02:32:57;;;;;;;2.23;2.03;;;4.50;99.90;;;;;;5025095;28;20426;-60
2022/11/24 02:35:26;;;;;;;2.53;1.60;;;4.50;99.90;;;;;;5028886;28;20886;-60
2022/11/24 02:37:51;;;;;;;3.57;2.20;;;4.50;99.90;;;;;;5028120;28;20437;-60
2022/11/24 02:40:24;;;;;;;6.00;1.83;;;4.40;99.90;;;;;;5021569;28;20431;-59
2022/11/24 02:43:00;;;;;;;2.23;1.67;;;4.40;99.90;;;;;;5022046;28;20208;-60
2022/11/24 02:45:27;;;;;;;3.03;1.80;;;4.40;99.90;;;;;;5025181;28;20520;-60
2022/11/24 02:47:52;;;;;;;4.20;1.73;;;4.30;99.90;;;;;;5027985;28;20806;-59
2022/11/24 02:50:18;;;;;;;4.30;1.60;;;4.30;99.90;;;;;;5026436;28;20439;-61
2022/11/24 02:52:43;;;;;;;2.90;1.67;;;4.30;99.90;;;;;;5029473;28;20174;-59
2022/11/24 02:55:09;;;;;;;4.30;1.77;;;4.30;99.90;;;;;;5025236;28;20662;-58
2022/11/24 02:57:35;;;;;;;3.73;1.63;;;4.30;99.90;;;;;;5027560;28;20180;-61
2022/11/24 03:00:03;;;;;;;2.77;1.60;;;4.30;99.90;;;;;;5020632;28;20207;-60
2022/11/24 03:02:28;;;;;;;2.10;1.60;;;4.20;99.90;;;;;;5026687;28;20678;-59
2022/11/24 03:04:54;;;;;;;5.90;1.90;;;4.20;99.90;;;;;;5022919;28;20462;-60
2022/11/24 03:07:19;;;;;;;4.87;1.80;;;4.10;99.90;;;;;;5028898;28;20183;-59
2022/11/24 03:09:45;;;;;;;5.40;1.77;;;4.00;99.90;;;;;;5026947;28;20815;-60
2022/11/24 03:12:11;;;;;;;3.07;1.90;;;3.90;99.90;;;;;;5028911;28;20187;-60
2022/11/24 03:14:36;;;;;;;2.20;1.73;;;3.90;99.90;;;;;;5023676;28;20581;-59
2022/11/24 03:17:02;;;;;;;3.80;1.80;;;3.80;99.90;;;;;;5020686;28;20214;-60
2022/11/24 03:19:28;;;;;;;3.73;2.03;;;3.80;99.90;;;;;;5028415;28;20172;-59
2022/11/24 03:21:54;;;;;;;3.57;1.90;;;3.70;99.90;;;;;;5022037;28;20998;-60
2022/11/24 03:24:19;;;;;;;6.87;2.30;;;3.70;99.90;;;;;;5024642;28;20176;-60
2022/11/24 03:26:45;;;;;;;6.57;2.27;;;3.70;99.90;;;;;;5030116;28;20191;-60
2022/11/24 03:29:11;;;;;;;7.37;2.10;;;3.70;99.90;;;;;;5030573;28;20176;-60
2022/11/24 03:31:36;;;;;;;2.57;1.67;;;3.70;99.90;;;;;;5027108;28;20611;-60
2022/11/24 03:34:02;;;;;;;4.90;1.80;;;3.70;99.90;;;;;;5030850;28;21805;-60
2022/11/24 03:36:27;;;;;;;6.17;2.07;;;3.70;99.90;;;;;;5028011;28;20211;-60
2022/11/24 03:38:53;;;;;;;7.20;1.90;;;3.70;99.90;;;;;;5028778;28;20267;-60
2022/11/24 03:41:18;;;;;;;4.10;1.97;;;3.70;99.90;;;;;;5030234;28;20639;-60
2022/11/24 03:43:44;;;;;;;15.37;6.30;;;3.70;99.90;;;;;;5029589;28;20203;-60
2022/11/24 03:46:11;;;;;;;18.27;6.40;;;3.60;99.90;;;;;;5029111;28;20673;-60
2022/11/24 03:48:36;;;;;;;21.23;6.90;;;3.60;99.90;;;;;;5029081;28;20176;-60
2022/11/24 03:51:02;;;;;;;10.87;3.30;;;3.60;99.90;;;;;;5030889;28;20438;-60
2022/11/24 03:53:30;;;;;;;4.20;2.73;;;3.60;99.90;;;;;;5031512;28;20316;-60
2022/11/24 03:55:56;;;;;;;21.13;4.03;;;3.60;99.90;;;;;;5026770;28;20199;-60
2022/11/24 03:58:22;;;;;;;6.00;2.30;;;3.60;99.90;;;;;;5030001;28;20448;-60
2022/11/24 04:00:49;;;;;;;4.10;2.60;;;3.60;99.90;;;;;;5030924;28;20442;-60
2022/11/24 04:03:15;;;;;;;8.37;2.30;;;3.70;99.90;;;;;;5029453;28;20983;-60
2022/11/24 04:05:41;;;;;;;7.17;2.80;;;3.70;99.90;;;;;;5016109;28;20442;-60
2022/11/24 04:08:06;;;;;;;10.90;3.00;;;3.70;99.90;;;;;;5028556;28;20468;-60
2022/11/24 04:10:35;;;;;;;12.80;3.07;;;3.80;99.90;;;;;;5028451;28;20184;-60
2022/11/24 04:13:01;;;;;;;5.53;2.17;;;3.80;99.90;;;;;;5026776;28;20177;-60
2022/11/24 04:15:26;;;;;;;12.37;2.50;;;3.80;99.90;;;;;;5026446;28;20458;-60
2022/11/24 04:17:54;;;;;;;10.07;2.13;;;3.80;99.90;;;;;;5031470;28;20434;-59
2022/11/24 04:20:20;;;;;;;11.63;2.17;;;3.90;99.90;;;;;;5024282;28;20215;-59
2022/11/24 04:22:49;;;;;;;9.27;2.27;;;3.90;99.90;;;;;;5022818;28;20475;-60
2022/11/24 04:25:16;;;;;;;7.03;2.57;;;3.90;99.90;;;;;;5028176;28;20650;-59
2022/11/24 04:27:44;;;;;;;9.40;2.20;;;3.90;99.90;;;;;;5023938;28;20439;-60
2022/11/24 04:30:10;;;;;;;10.13;2.63;;;3.90;99.90;;;;;;5024242;28;20529;-60
2022/11/24 04:32:36;;;;;;;6.60;3.13;;;3.90;99.90;;;;;;5027528;28;20525;-59
2022/11/24 04:35:02;;;;;;;9.27;5.03;;;3.90;99.90;;;;;;5011049;28;20187;-59
2022/11/24 04:37:28;;;;;;;16.47;5.63;;;3.80;99.90;;;;;;5029493;28;20662;-60
2022/11/24 04:39:54;;;;;;;12.80;6.60;;;3.80;99.90;;;;;;5009244;28;20465;-60
2022/11/24 04:42:20;;;;;;;14.30;6.73;;;3.70;99.90;;;;;;5010603;28;20203;-59
2022/11/24 04:44:46;;;;;;;20.73;7.00;;;3.70;99.90;;;;;;5028997;28;20186;-60
2022/11/24 04:47:22;;;;;;;13.27;5.77;;;3.70;99.90;;;;;;5029564;28;20446;-60
2022/11/24 04:49:48;;;;;;;13.20;6.10;;;3.70;99.90;;;;;;5010695;28;20769;-60
2022/11/24 04:52:14;;;;;;;7.50;4.57;;;3.70;99.90;;;;;;5028912;28;20425;-60
2022/11/24 04:54:40;;;;;;;11.70;4.07;;;3.70;99.90;;;;;;5017649;28;20594;-60
2022/11/24 04:57:05;;;;;;;13.73;3.10;;;3.60;99.90;;;;;;5024235;28;20461;-57
2022/11/24 04:59:31;;;;;;;9.07;2.70;;;3.60;99.90;;;;;;5022249;28;20255;-58
2022/11/24 05:01:57;;;;;;;11.07;3.17;;;3.60;99.90;;;;;;5009153;28;20190;-58
2022/11/24 05:04:22;;;;;;;11.57;3.67;;;3.70;99.90;;;;;;5025194;28;20752;-60
2022/11/24 05:06:48;;;;;;;8.40;3.43;;;3.70;99.90;;;;;;5009481;28;20243;-61
2022/11/24 05:09:15;;;;;;;9.20;3.03;;;3.70;99.90;;;;;;5027101;28;20170;-60
2022/11/24 05:11:41;;;;;;;7.67;2.37;;;3.70;99.90;;;;;;5027815;28;20625;-60
2022/11/24 05:14:09;;;;;;;10.37;2.30;;;3.70;99.90;;;;;;5025976;28;20482;-60
2022/11/24 05:16:36;;;;;;;14.83;2.90;;;3.80;99.90;;;;;;5020334;28;20696;-60
2022/11/24 05:19:01;;;;;;;9.07;2.90;;;3.70;99.90;;;;;;5025176;28;20446;-60
2022/11/24 05:21:27;;;;;;;7.20;3.33;;;3.70;99.90;;;;;;5028287;28;20822;-60
2022/11/24 05:23:56;;;;;;;7.83;3.50;;;3.70;99.90;;;;;;5022446;28;20208;-60
2022/11/24 05:26:21;;;;;;;9.03;3.13;;;3.60;99.90;;;;;;5019893;28;20447;-60
2022/11/24 05:28:47;;;;;;;10.10;3.90;;;3.60;99.90;;;;;;5022886;28;20945;-60
2022/11/24 05:31:13;;;;;;;26.43;4.77;;;3.50;99.90;;;;;;5022964;28;20259;-59
2022/11/24 05:33:38;;;;;;;7.30;3.40;;;3.50;99.90;;;;;;5019627;28;21040;-60
2022/11/24 05:36:06;;;;;;;12.00;3.90;;;3.50;99.90;;;;;;5025394;28;20581;-56
2022/11/24 05:38:32;;;;;;;6.60;3.30;;;3.50;99.90;;;;;;5023307;28;20241;-60
2022/11/24 05:41:03;;;;;;;8.87;4.63;;;3.40;99.90;;;;;;5015670;28;20438;-61
2022/11/24 05:43:31;;;;;;;11.00;4.60;;;3.40;99.90;;;;;;5017187;28;20465;-61
2022/11/24 05:46:09;;;;;;;13.67;5.47;;;3.30;99.90;;;;;;5024882;28;20480;-59
2022/11/24 05:48:37;;;;;;;24.47;10.60;;;3.30;99.90;;;;;;5021522;28;20430;-59
2022/11/24 05:51:03;;;;;;;36.43;17.57;;;3.20;99.90;;;;;;5011623;28;20824;-59
2022/11/24 05:53:28;;;;;;;16.80;7.50;;;3.20;99.90;;;;;;5027202;28;20445;-60
2022/11/24 05:55:54;;;;;;;7.20;4.40;;;3.20;99.90;;;;;;5020425;28;20210;-59
2022/11/24 05:58:20;;;;;;;10.47;4.80;;;3.20;99.90;;;;;;5024217;28;20211;-60
2022/11/24 06:00:45;;;;;;;10.67;4.77;;;3.20;99.90;;;;;;5025328;28;20183;-60
2022/11/24 06:03:11;;;;;;;11.30;6.07;;;3.20;99.90;;;;;;5024969;28;20203;-60
2022/11/24 06:05:37;;;;;;;13.77;6.30;;;3.20;99.90;;;;;;5018228;28;20234;-60
2022/11/24 06:08:03;;;;;;;12.67;5.93;;;3.20;99.90;;;;;;5020082;28;20655;-60
2022/11/24 06:10:29;;;;;;;15.07;6.30;;;3.10;99.90;;;;;;5023508;28;20441;-59
2022/11/24 06:12:55;;;;;;;9.23;5.37;;;3.10;99.90;;;;;;5019049;28;20434;-60
2022/11/24 06:15:21;;;;;;;9.03;4.70;;;3.20;99.90;;;;;;5025998;28;20414;-60
2022/11/24 06:17:55;;;;;;;14.27;5.20;;;3.10;99.90;;;;;;5028414;28;20176;-59
2022/11/24 06:20:22;;;;;;;13.23;4.30;;;3.10;99.90;;;;;;5027326;28;20991;-60
2022/11/24 06:22:48;;;;;;;15.47;5.97;;;3.20;99.90;;;;;;5028627;28;20477;-60
2022/11/24 06:25:15;;;;;;;32.83;13.30;;;3.20;99.90;;;;;;5023674;28;20410;-60
2022/11/24 06:27:40;;;;;;;27.03;10.37;;;3.30;99.90;;;;;;5025740;28;20198;-59
2022/11/24 06:30:06;;;;;;;21.13;12.03;;;3.30;99.90;;;;;;5029445;28;20945;-60
2022/11/24 06:32:32;;;;;;;28.73;13.00;;;3.40;99.90;;;;;;5021161;28;20184;-60
2022/11/24 06:34:57;;;;;;;16.33;7.50;;;3.40;99.90;;;;;;5027106;28;20428;-59
2022/11/24 06:37:23;;;;;;;13.17;5.63;;;3.50;99.90;;;;;;5026547;28;20199;-60
2022/11/24 06:39:49;;;;;;;18.23;5.50;;;3.50;99.90;;;;;;5028638;28;20271;-59
2022/11/24 06:42:17;;;;;;;19.70;6.00;;;3.60;99.90;;;;;;5024241;28;20254;-60
2022/11/24 06:44:47;;;;;;;11.97;4.90;;;3.70;99.90;;;;;;5009363;28;20722;-60
2022/11/24 06:47:13;;;;;;;18.13;5.50;;;3.70;99.90;;;;;;5007732;28;20459;-60
2022/11/24 06:49:39;;;;;;;18.43;5.10;;;3.80;99.90;;;;;;5015320;28;20430;-60
2022/11/24 06:52:05;;;;;;;8.00;3.80;;;3.90;99.90;;;;;;5022487;28;20507;-60
2022/11/24 06:54:31;;;;;;;21.20;4.90;;;4.00;99.90;;;;;;5025651;28;20845;-60
2022/11/24 06:56:57;;;;;;;10.30;4.17;;;4.10;99.90;;;;;;5026244;28;20206;-60
2022/11/24 06:59:23;;;;;;;13.70;3.87;;;4.20;99.90;;;;;;5024808;28;20207;-60
2022/11/24 07:01:49;;;;;;;19.60;4.30;;;4.20;99.90;;;;;;5025542;28;21095;-60
2022/11/24 07:04:15;;;;;;;11.40;3.80;;;4.30;99.90;;;;;;5023612;28;20441;-56
2022/11/24 07:06:42;;;;;;;8.70;4.00;;;4.30;99.90;;;;;;5024216;28;22123;-60
2022/11/24 07:09:09;;;;;;;9.50;3.57;;;4.40;99.90;;;;;;5027489;28;20429;-60
2022/11/24 07:11:35;;;;;;;10.90;3.23;;;4.40;99.90;;;;;;5004656;28;20438;-60
2022/11/24 07:14:01;;;;;;;9.17;4.40;;;4.50;99.90;;;;;;5024030;28;21281;-60
2022/11/24 07:16:27;;;;;;;9.47;3.67;;;4.50;99.90;;;;;;5025443;28;20539;-60
2022/11/24 07:18:54;;;;;;;13.30;3.60;;;4.60;99.90;;;;;;5025503;28;20441;-59
2022/11/24 07:21:21;;;;;;;13.20;4.13;;;4.60;99.90;;;;;;5027451;28;20180;-60
2022/11/24 07:23:51;;;;;;;8.30;3.50;;;4.60;99.90;;;;;;5006330;28;20462;-59
2022/11/24 07:26:17;;;;;;;15.30;3.00;;;4.60;99.90;;;;;;5024650;28;21009;-60
2022/11/24 07:28:43;;;;;;;6.57;2.80;;;4.60;99.90;;;;;;5009342;28;20431;-60
2022/11/24 07:31:12;;;;;;;6.50;2.70;;;4.70;99.90;;;;;;5027141;28;20487;-60
2022/11/24 07:33:37;;;;;;;10.47;2.80;;;4.70;99.90;;;;;;5010329;28;20425;-60
2022/11/24 07:36:05;;;;;;;10.23;2.70;;;4.80;99.90;;;;;;5028833;28;20442;-60
2022/11/24 07:38:32;;;;;;;11.00;3.17;;;4.80;99.90;;;;;;5021540;28;20662;-59
2022/11/24 07:41:05;;;;;;;4.87;2.60;;;4.80;99.90;;;;;;5022328;28;20442;-60
2022/11/24 07:43:32;;;;;;;11.30;2.90;;;4.90;99.90;;;;;;5024956;28;20484;-60
2022/11/24 07:45:58;;;;;;;13.30;3.00;;;4.90;99.90;;;;;;5029097;28;20462;-59
2022/11/24 07:48:23;;;;;;;13.20;3.70;;;4.90;99.90;;;;;;5025721;28;20517;-59
2022/11/24 07:50:49;;;;;;;4.80;3.33;;;4.90;99.90;;;;;;5023981;28;20211;-59
2022/11/24 07:53:15;;;;;;;7.93;3.70;;;4.90;99.90;;;;;;5014090;28;20733;-60
2022/11/24 07:55:41;;;;;;;9.03;3.57;;;5.00;99.90;;;;;;5021951;28;20215;-60
2022/11/24 07:58:07;;;;;;;6.00;3.93;;;5.00;99.90;;;;;;5021493;28;20430;-59
2022/11/24 08:00:32;;;;;;;11.47;3.80;;;5.00;99.90;;;;;;5021108;28;20376;-61
2022/11/24 08:02:58;;;;;;;8.77;3.83;;;5.10;99.90;;;;;;5018711;28;20298;-60
2022/11/24 08:05:23;;;;;;;6.30;3.40;;;5.10;99.90;;;;;;5021440;28;20254;-59
2022/11/24 08:07:49;;;;;;;8.43;3.50;;;5.10;99.90;;;;;;5021784;28;20784;-60
2022/11/24 08:10:15;;;;;;;5.37;3.57;;;5.10;99.90;;;;;;5019191;28;20667;-60
2022/11/24 08:12:41;;;;;;;6.50;3.50;;;5.10;99.90;;;;;;5020965;28;20192;-59
2022/11/24 08:15:07;;;;;;;7.80;3.10;;;5.10;99.90;;;;;;5009793;28;20968;-59
2022/11/24 08:17:33;;;;;;;8.17;4.00;;;5.20;99.90;;;;;;5023294;28;20188;-59
2022/11/24 08:19:59;;;;;;;11.83;3.33;;;5.20;99.90;;;;;;5026229;28;20488;-60
2022/11/24 08:22:25;;;;;;;7.10;3.50;;;5.30;99.90;;;;;;5009717;28;20210;-59
2022/11/24 08:24:50;;;;;;;15.53;3.60;;;5.30;99.90;;;;;;5027192;28;20182;-59
2022/11/24 08:27:17;;;;;;;6.70;3.63;;;5.30;99.90;;;;;;5025747;28;20458;-58
2022/11/24 08:29:43;;;;;;;9.70;4.30;;;5.30;99.90;;;;;;5023923;28;20494;-60
2022/11/24 08:32:09;;;;;;;10.10;4.70;;;5.40;99.90;;;;;;5024270;28;21213;-60
2022/11/24 08:34:35;;;;;;;10.70;4.47;;;5.40;99.90;;;;;;5025348;28;20185;-60
2022/11/24 08:37:02;;;;;;;18.90;5.87;;;5.40;99.90;;;;;;5025334;28;20523;-59
2022/11/24 08:45:27;;;;;;;10.50;4.23;;;5.50;99.90;;;;;;5550945;22;20490;-59
2022/11/24 08:47:53;;;;;;;10.73;3.53;;;5.50;99.90;;;;;;5017985;28;20439;-60
2022/11/24 08:50:21;;;;;;;12.33;3.10;;;5.60;99.90;;;;;;5023784;28;20448;-62
2022/11/24 08:52:47;;;;;;;12.13;3.67;;;5.60;99.90;;;;;;5025529;28;20520;-63
2022/11/24 08:55:12;;;;;;;6.30;3.00;;;5.70;99.90;;;;;;5025946;28;21035;-62
2022/11/24 08:57:38;;;;;;;8.27;2.50;;;5.70;99.90;;;;;;5003617;28;20970;-62
2022/11/24 09:00:05;;;;;;;4.20;1.83;;;5.70;99.90;;;;;;5026531;28;20581;-62
2022/11/24 09:02:30;;;;;;;3.63;2.03;;;5.80;99.90;;;;;;5023859;28;20208;-62
2022/11/24 09:04:56;;;;;;;8.20;2.60;;;5.80;99.90;;;;;;5022576;28;20450;-62
2022/11/24 09:07:22;;;;;;;5.63;2.40;;;5.80;99.90;;;;;;5022033;28;20254;-62
2022/11/24 09:09:48;;;;;;;7.60;2.27;;;5.80;99.90;;;;;;5021419;28;20183;-62
2022/11/24 09:12:13;;;;;;;7.30;2.70;;;5.80;99.90;;;;;;5026409;28;20445;-62
2022/11/24 09:14:39;;;;;;;7.10;2.57;;;5.80;99.90;;;;;;5024901;28;20199;-62
2022/11/24 09:17:04;;;;;;;9.47;3.20;;;5.80;99.90;;;;;;5023469;28;20191;-62
2022/11/24 09:19:30;;;;;;;8.87;2.30;;;5.80;99.90;;;;;;5026123;28;20180;-62
2022/11/24 09:21:56;;;;;;;8.53;2.00;;;5.90;99.90;;;;;;5021255;28;20195;-62
2022/11/24 09:24:21;;;;;;;3.80;1.80;;;5.90;99.90;;;;;;5019085;28;20231;-62
2022/11/24 09:26:47;;;;;;;6.10;2.27;;;5.90;99.90;;;;;;5018130;28;20188;-62
2022/11/24 09:29:12;;;;;;;6.33;2.13;;;6.10;99.90;;;;;;5015466;28;20636;-62
2022/11/24 09:31:38;;;;;;;4.90;2.43;;;6.20;99.90;;;;;;5022371;28;20188;-62
2022/11/24 09:34:06;;;;;;;9.17;2.60;;;6.30;99.90;;;;;;5007122;28;20180;-61
2022/11/24 09:36:32;;;;;;;8.10;2.20;;;6.40;99.90;;;;;;5007829;28;20969;-62
2022/11/24 09:38:58;;;;;;;6.37;2.47;;;6.50;99.90;;;;;;5023409;28;20435;-62
2022/11/24 09:41:49;;;;;;;5.90;1.90;;;6.60;99.90;;;;;;5020903;28;20186;-62
2022/11/24 09:44:49;;;;;;;2.90;1.67;;;6.80;99.90;;;;;;5021473;28;20621;-62
2022/11/24 09:47:26;;;;;;;4.63;2.10;;;6.90;99.90;;;;;;5017903;28;20449;-61
2022/11/24 09:50:03;;;;;;;4.70;2.17;;;6.90;99.90;;;;;;5026000;28;20434;-62
2022/11/24 09:52:40;;;;;;;8.80;2.30;;;6.90;99.90;;;;;;5028015;28;20572;-62
2022/11/24 09:55:48;;;;;;;11.30;2.10;;;6.90;99.90;;;;;;5025516;28;20458;-62
2022/11/24 09:58:41;;;;;;;7.40;2.60;;;6.80;99.90;;;;;;5009782;28;20438;-61
2022/11/24 10:01:31;;;;;;;6.43;2.23;;;6.80;99.90;;;;;;5017141;28;20801;-62
2022/11/24 10:03:57;;;;;;;8.03;2.57;;;6.80;99.90;;;;;;5028208;28;20462;-62
2022/11/24 10:06:38;;;;;;;2.73;1.60;;;6.90;99.90;;;;;;5014257;28;20928;-62
2022/11/24 10:09:23;;;;;;;3.50;2.00;;;7.00;99.90;;;;;;5006684;28;20431;-62
2022/11/24 10:12:08;;;;;;;6.03;2.00;;;7.10;99.90;;;;;;5026015;28;20458;-62
2022/11/24 10:14:40;;;;;;;4.67;1.63;;;7.20;99.90;;;;;;5024040;28;20453;-62
2022/11/24 10:17:21;;;;;;;4.60;1.90;;;7.20;99.90;;;;;;5026432;28;21131;-62
2022/11/24 10:19:59;;;;;;;6.67;2.13;;;7.20;99.90;;;;;;5019287;28;20809;-62
2022/11/24 10:22:51;;;;;;;6.40;2.33;;;7.30;99.90;;;;;;5023143;28;21016;-62
2022/11/24 10:25:19;;;;;;;4.80;2.10;;;7.40;99.90;;;;;;5010046;28;20454;-61
2022/11/24 10:28:03;;;;;;;5.40;1.73;;;7.50;99.90;;;;;;5025471;28;20763;-62
2022/11/24 10:30:32;;;;;;;4.53;1.60;;;7.70;99.90;;;;;;5029573;28;20402;-62
2022/11/24 10:33:07;;;;;;;2.27;1.40;;;7.80;99.90;;;;;;5013480;28;20430;-62
2022/11/24 10:35:51;;;;;;;4.63;1.60;;;7.80;99.90;;;;;;5024475;28;20464;-62
2022/11/24 10:38:34;;;;;;;2.40;1.33;;;7.90;99.90;;;;;;5026295;28;20433;-62
2022/11/24 10:41:06;;;;;;;4.20;1.30;;;8.00;99.90;;;;;;5022641;28;20943;-62
2022/11/24 10:43:32;;;;;;;2.53;1.60;;;8.10;99.90;;;;;;5026530;28;20510;-62
2022/11/24 10:46:10;;;;;;;3.20;1.20;;;8.10;99.90;;;;;;5012125;28;20489;-62
2022/11/24 10:48:52;;;;;;;6.00;1.40;;;8.10;99.90;;;;;;5013583;28;20573;-62
2022/11/24 10:52:00;;;;;;;5.50;1.40;;;8.00;99.90;;;;;;5023700;28;20424;-62
2022/11/24 10:54:26;;;;;;;3.73;1.73;;;8.10;99.90;;;;;;5013035;28;20446;-62
2022/11/24 10:56:53;;;;;;;5.33;1.40;;;8.00;99.90;;;;;;5024415;28;20922;-62
2022/11/24 10:59:19;;;;;;;5.40;1.40;;;7.90;99.90;;;;;;5012079;28;20461;-62
2022/11/24 11:01:44;;;;;;;3.00;1.37;;;7.80;99.90;;;;;;5026332;28;20509;-62
2022/11/24 11:04:20;;;;;;;2.17;1.33;;;7.80;99.90;;;;;;5028246;28;20258;-62
2022/11/24 11:06:46;;;;;;;7.37;1.87;;;8.00;99.90;;;;;;5022083;28;20183;-62
2022/11/24 11:09:21;;;;;;;6.63;1.50;;;8.20;99.90;;;;;;5024941;28;20418;-62
2022/11/24 11:11:48;;;;;;;4.40;1.50;;;8.40;99.90;;;;;;5025750;28;20203;-62
2022/11/24 11:14:29;;;;;;;9.70;2.27;;;8.60;99.90;;;;;;5007232;28;20438;-60
2022/11/24 11:16:58;;;;;;;4.40;1.50;;;8.80;99.90;;;;;;5024995;28;21104;-60
2022/11/24 11:19:36;;;;;;;6.40;1.70;;;8.90;99.90;;;;;;5025614;28;20449;-62
2022/11/24 11:22:10;;;;;;;6.73;2.10;;;9.00;99.90;;;;;;5018366;28;20986;-62
2022/11/24 11:24:40;;;;;;;5.50;1.83;;;9.20;99.90;;;;;;5025532;28;20462;-62
2022/11/24 11:27:25;;;;;;;3.87;2.10;;;9.30;99.90;;;;;;5025001;28;20461;-63
2022/11/24 11:29:51;;;;;;;8.93;1.90;;;9.40;99.90;;;;;;5019791;28;20426;-62
2022/11/24 11:32:23;;;;;;;3.97;1.73;;;9.50;99.90;;;;;;5021243;28;20951;-60
2022/11/24 11:34:50;;;;;;;6.87;2.07;;;9.50;99.90;;;;;;5025766;28;20450;-62
2022/11/24 11:37:18;;;;;;;3.50;1.53;;;9.60;99.90;;;;;;5023582;28;20434;-63
2022/11/24 11:39:53;;;;;;;4.70;1.70;;;9.60;99.90;;;;;;5022676;28;21026;-60
2022/11/24 11:42:25;;;;;;;2.93;1.60;;;9.60;99.50;;;;;;5026506;28;20536;-63
2022/11/24 11:45:05;;;;;;;5.83;1.70;;;9.60;99.60;;;;;;5020124;28;21175;-60
2022/11/24 11:47:35;;;;;;;4.17;1.50;;;9.50;93.70;;;;;;5027664;28;20442;-62
2022/11/24 11:50:01;;;;;;;8.30;1.80;;;9.40;96.70;;;;;;5028122;28;20429;-60
2022/11/24 11:52:54;;;;;;;5.80;1.80;;;9.40;98.50;;;;;;5027638;28;20721;-61
2022/11/24 11:55:43;;;;;;;4.10;1.43;;;9.30;93.20;;;;;;5025229;28;21092;-61
2022/11/24 11:58:37;;;;;;;3.83;1.57;;;9.10;94.30;;;;;;5013615;28;20499;-60
2022/11/24 12:01:21;;;;;;;2.67;1.63;;;9.00;94.30;;;;;;5022724;28;20441;-61
2022/11/24 12:04:03;;;;;;;6.30;1.93;;;9.00;96.80;;;;;;5031761;28;20466;-57
2022/11/24 12:06:47;;;;;;;11.20;2.00;;;8.90;95.60;;;;;;5025636;28;20449;-57
2022/11/24 12:09:22;;;;;;;8.10;1.73;;;8.90;96.20;;;;;;5028016;28;20578;-62
2022/11/24 12:12:18;;;;;;;9.93;2.03;;;8.80;96.00;;;;;;5026909;28;20520;-61
2022/11/24 12:15:14;;;;;;;8.60;1.90;;;8.80;97.60;;;;;;5021942;28;20453;-61
2022/11/24 12:17:58;;;;;;;3.60;1.70;;;8.80;98.90;;;;;;5027951;28;20434;-61
2022/11/24 12:20:24;;;;;;;7.30;1.90;;;8.80;99.90;;;;;;5027340;28;20426;-61
2022/11/24 12:23:03;;;;;;;3.23;1.67;;;8.80;98.90;;;;;;5025023;28;20506;-61
2022/11/24 12:25:39;;;;;;;5.50;1.67;;;8.80;97.30;;;;;;5012508;28;20207;-60
2022/11/24 12:28:50;;;;;;;3.57;1.70;;;8.80;96.00;;;;;;5006272;28;20598;-61
2022/11/24 12:31:43;;;;;;;5.50;2.00;;;8.80;95.80;;;;;;5029612;28;20992;-61
2022/11/24 12:34:20;;;;;;;10.50;2.40;;;8.80;98.30;;;;;;5024956;28;20437;-59
2022/11/24 12:37:02;;;;;;;10.30;3.10;;;8.90;98.10;;;;;;5030258;28;20434;-60
2022/11/24 12:39:36;;;;;;;7.40;2.30;;;8.90;99.90;;;;;;5026971;28;20430;-60
2022/11/24 12:42:10;;;;;;;4.97;1.73;;;9.00;99.90;;;;;;5008902;28;21131;-61
2022/11/24 12:45:05;;;;;;;4.83;1.77;;;9.10;97.40;;;;;;5022391;28;20461;-61
2022/11/24 12:47:55;;;;;;;4.23;2.00;;;9.10;94.20;;;;;;5020033;28;20450;-61
2022/11/24 12:50:28;;;;;;;3.10;1.60;;;9.10;90.90;;;;;;5019459;28;20515;-61
2022/11/24 12:53:03;;;;;;;3.70;2.03;;;9.10;90.40;;;;;;5026611;28;20438;-61
2022/11/24 12:55:32;;;;;;;3.63;1.47;;;9.10;81.70;;;;;;5020003;28;20562;-61
2022/11/24 12:58:02;;;;;;;4.07;2.00;;;9.10;82.60;;;;;;5026524;28;20433;-60
2022/11/24 13:00:41;;;;;;;5.83;1.60;;;9.20;80.70;;;;;;5028017;28;20531;-61
2022/11/24 13:03:29;;;;;;;7.07;1.63;;;9.20;82.80;;;;;;5020525;28;20454;-61
2022/11/24 13:06:10;;;;;;;8.07;2.03;;;9.20;74.30;;;;;;5028774;28;20458;-61
2022/11/24 13:08:36;;;;;;;11.80;2.40;;;9.20;76.90;;;;;;5024135;28;20430;-58
2022/11/24 13:11:20;;;;;;;5.60;1.87;;;9.30;77.80;;;;;;5026559;28;20480;-61
2022/11/24 13:14:04;;;;;;;10.33;1.77;;;9.30;75.20;;;;;;5021926;28;20438;-62
2022/11/24 13:16:30;;;;;;;9.07;2.47;;;9.30;79.50;;;;;;5021126;28;21119;-62